Time;durP1;ratioP1;P1;durP2;ratioP2;P2;SDS_P1;SDS_P2;PMS_P1;PMS_P2;Temp;Humidity;BMP_temperature;BMP_pressure;BME280_temperature;BME280_humidity;BME280_pressure;Samples;Min_cycle;Max_cycle;Signal;HPM_P1;HPM_P2
2020/12/08 00:01:05;;;;;;;2.80;0.40;;;21.40;30.80;;;;;;5093061;28;20542;-69
2020/12/08 00:03:32;;;;;;;4.07;0.45;;;21.00;31.10;;;;;;5092773;28;20029;-69
2020/12/08 00:05:59;;;;;;;2.15;0.50;;;21.10;31.20;;;;;;5109024;28;20372;-69
2020/12/08 00:08:26;;;;;;;3.97;0.55;;;20.90;31.20;;;;;;5113310;28;20027;-68
2020/12/08 00:10:53;;;;;;;1.60;0.32;;;20.50;31.10;;;;;;5093483;28;20035;-70
2020/12/08 00:13:20;;;;;;;2.40;0.40;;;20.00;31.60;;;;;;5098369;28;20039;-69
2020/12/08 00:15:48;;;;;;;2.40;0.57;;;19.70;31.90;;;;;;5110964;28;20372;-69
2020/12/08 00:18:18;;;;;;;1.95;0.45;;;19.50;32.00;;;;;;5107982;28;20032;-70
2020/12/08 00:20:45;;;;;;;4.18;0.70;;;19.30;32.20;;;;;;5106854;28;20380;-70
2020/12/08 00:23:12;;;;;;;3.17;0.52;;;19.20;32.40;;;;;;5108397;28;20028;-69
2020/12/08 00:25:39;;;;;;;5.03;0.40;;;19.10;32.40;;;;;;5093422;28;20024;-69
2020/12/08 00:28:05;;;;;;;4.70;0.40;;;18.90;32.30;;;;;;5090639;28;20024;-69
2020/12/08 00:30:32;;;;;;;2.72;0.50;;;18.90;32.70;;;;;;5101592;28;20028;-69
2020/12/08 00:32:59;;;;;;;2.17;0.50;;;18.80;33.00;;;;;;5112336;28;20040;-69
2020/12/08 00:35:26;;;;;;;3.90;0.60;;;18.70;33.10;;;;;;5104455;28;20476;-69
2020/12/08 00:37:53;;;;;;;5.90;0.50;;;18.50;33.30;;;;;;5092973;28;20036;-69
2020/12/08 00:40:20;;;;;;;2.47;0.43;;;18.40;33.60;;;;;;5098382;28;20034;-69
2020/12/08 00:42:47;;;;;;;2.78;0.60;;;18.40;33.70;;;;;;5112439;28;20483;-69
2020/12/08 00:45:14;;;;;;;2.05;0.30;;;18.30;33.60;;;;;;5107316;28;20024;-68
2020/12/08 00:47:41;;;;;;;1.48;0.32;;;18.30;33.80;;;;;;5092988;28;20028;-69
2020/12/08 00:50:09;;;;;;;2.28;0.50;;;18.20;34.00;;;;;;5095526;28;20024;-68
2020/12/08 00:52:36;;;;;;;1.63;0.40;;;18.10;34.10;;;;;;5112642;28;20032;-68
2020/12/08 00:55:03;;;;;;;1.92;0.43;;;18.00;34.30;;;;;;5096137;28;20040;-68
2020/12/08 00:57:30;;;;;;;6.60;0.50;;;17.90;34.40;;;;;;5091475;28;20039;-69
2020/12/08 00:59:57;;;;;;;3.28;0.40;;;17.90;34.40;;;;;;5092092;28;20032;-71
2020/12/08 01:02:24;;;;;;;3.05;0.43;;;17.90;34.60;;;;;;5103389;28;20032;-70
2020/12/08 01:04:51;;;;;;;2.03;0.52;;;17.80;34.60;;;;;;5099018;28;20653;-70
2020/12/08 01:07:18;;;;;;;7.30;0.50;;;17.80;34.80;;;;;;5112232;28;20344;-70
2020/12/08 01:09:48;;;;;;;3.47;0.60;;;17.70;34.80;;;;;;5111508;28;20027;-71
2020/12/08 01:12:15;;;;;;;5.32;0.50;;;17.70;34.90;;;;;;5110032;28;20055;-69
2020/12/08 01:14:42;;;;;;;7.30;0.50;;;17.70;35.00;;;;;;5112142;28;20035;-69
2020/12/08 01:17:09;;;;;;;4.60;0.70;;;17.60;35.10;;;;;;5110284;28;20028;-69
2020/12/08 01:19:36;;;;;;;2.42;0.50;;;17.60;35.10;;;;;;5091783;28;20024;-69
2020/12/08 01:22:03;;;;;;;6.63;0.68;;;17.60;35.30;;;;;;5102179;28;20140;-69
2020/12/08 01:24:30;;;;;;;3.30;0.90;;;17.50;35.40;;;;;;5110053;28;20032;-70
2020/12/08 01:26:58;;;;;;;4.47;0.85;;;17.50;35.30;;;;;;5101850;28;20028;-69
2020/12/08 01:29:25;;;;;;;5.00;0.43;;;17.50;35.80;;;;;;5091883;28;20404;-69
2020/12/08 01:31:53;;;;;;;6.13;0.60;;;17.40;35.60;;;;;;5099579;28;20031;-70
2020/12/08 01:34:20;;;;;;;3.38;0.60;;;17.40;35.70;;;;;;5110357;28;20050;-69
2020/12/08 01:36:50;;;;;;;1.40;0.55;;;17.30;35.80;;;;;;5115823;28;20030;-68
2020/12/08 01:39:17;;;;;;;9.68;0.60;;;17.30;35.90;;;;;;5115235;28;20047;-68
2020/12/08 01:41:44;;;;;;;5.18;0.57;;;17.30;35.90;;;;;;5111705;28;20115;-68
2020/12/08 01:44:11;;;;;;;1.70;0.45;;;17.20;35.90;;;;;;5098998;28;20717;-70
2020/12/08 01:46:41;;;;;;;2.47;0.40;;;17.10;36.20;;;;;;5115396;28;20039;-69
2020/12/08 01:49:09;;;;;;;5.65;0.60;;;17.10;36.00;;;;;;5115879;28;20031;-70
2020/12/08 01:51:38;;;;;;;3.03;0.52;;;17.10;36.30;;;;;;5095161;28;20368;-71
2020/12/08 01:54:05;;;;;;;5.05;0.38;;;17.00;36.00;;;;;;5094991;28;20042;-71
2020/12/08 01:56:32;;;;;;;4.45;0.85;;;17.00;36.20;;;;;;5094888;28;20032;-69
2020/12/08 01:58:59;;;;;;;1.63;0.40;;;16.90;36.20;;;;;;5095561;28;20023;-71
2020/12/08 02:01:26;;;;;;;6.53;0.52;;;16.90;36.20;;;;;;5096369;28;20024;-71
2020/12/08 02:03:54;;;;;;;6.22;0.65;;;17.00;36.00;;;;;;5115718;28;20036;-72
2020/12/08 02:06:21;;;;;;;4.13;0.50;;;17.00;36.00;;;;;;5115473;28;20487;-71
2020/12/08 02:08:48;;;;;;;1.48;0.50;;;17.00;35.70;;;;;;5114657;27;20032;-69
2020/12/08 02:11:15;;;;;;;2.80;0.60;;;17.00;36.00;;;;;;5115080;28;20043;-70
2020/12/08 02:13:42;;;;;;;2.70;0.45;;;16.80;36.30;;;;;;5115278;28;20046;-70
2020/12/08 02:16:10;;;;;;;3.65;0.45;;;16.70;36.30;;;;;;5115346;28;20028;-70
2020/12/08 02:18:37;;;;;;;4.38;0.70;;;16.70;36.10;;;;;;5115092;28;20028;-71
2020/12/08 02:21:05;;;;;;;3.63;0.70;;;16.90;35.80;;;;;;5115424;28;20028;-69
2020/12/08 02:23:32;;;;;;;1.55;0.50;;;16.80;36.00;;;;;;5114482;28;20039;-69
2020/12/08 02:26:04;;;;;;;1.13;0.32;;;16.80;36.30;;;;;;5114937;28;20020;-69
2020/12/08 02:28:33;;;;;;;12.02;1.25;;;17.00;35.70;;;;;;5114997;28;20031;-69
2020/12/08 02:31:00;;;;;;;1.00;0.30;;;17.00;35.50;;;;;;5114737;28;20034;-68
2020/12/08 02:33:30;;;;;;;3.58;0.38;;;17.00;35.50;;;;;;5114951;28;20058;-68
2020/12/08 02:35:57;;;;;;;2.70;0.63;;;17.00;35.50;;;;;;5114732;28;20015;-70
2020/12/08 02:38:26;;;;;;;5.90;0.45;;;17.00;35.50;;;;;;5114725;28;20028;-71
2020/12/08 02:40:53;;;;;;;0.90;0.45;;;17.00;35.50;;;;;;5114969;28;20027;-70
2020/12/08 02:43:22;;;;;;;8.40;0.60;;;17.00;35.40;;;;;;5114679;28;20468;-71
2020/12/08 02:45:50;;;;;;;0.60;0.40;;;17.10;35.40;;;;;;5113161;28;20036;-69
2020/12/08 02:48:17;;;;;;;1.38;0.60;;;17.00;35.40;;;;;;5114352;28;20024;-70
2020/12/08 02:50:44;;;;;;;4.03;0.65;;;17.00;35.40;;;;;;5096329;28;20511;-70
2020/12/08 02:53:11;;;;;;;6.30;0.50;;;17.00;35.30;;;;;;5096449;28;20051;-71
2020/12/08 02:55:38;;;;;;;2.40;0.70;;;17.10;34.90;;;;;;5106607;28;20044;-70
2020/12/08 02:58:05;;;;;;;6.00;0.50;;;17.10;35.00;;;;;;5112310;28;20031;-70
2020/12/08 03:00:32;;;;;;;0.70;0.35;;;17.10;34.90;;;;;;5106779;28;20032;-70
2020/12/08 03:02:59;;;;;;;1.55;0.50;;;17.20;34.50;;;;;;5094234;28;20028;-70
2020/12/08 03:05:26;;;;;;;2.55;0.30;;;17.30;34.60;;;;;;5095224;28;20032;-71
2020/12/08 03:07:53;;;;;;;5.78;0.75;;;17.20;34.70;;;;;;5106980;28;20035;-70
2020/12/08 03:10:20;;;;;;;3.08;0.65;;;17.20;34.70;;;;;;5112576;28;20032;-71
2020/12/08 03:12:47;;;;;;;1.40;0.52;;;17.10;35.50;;;;;;5093821;28;20024;-70
2020/12/08 03:15:14;;;;;;;1.38;0.40;;;17.00;35.00;;;;;;5094674;28;20031;-70
2020/12/08 03:17:41;;;;;;;1.55;0.52;;;17.00;35.10;;;;;;5093852;28;20028;-70
2020/12/08 03:20:08;;;;;;;2.05;0.40;;;16.90;35.10;;;;;;5094649;28;20031;-70
2020/12/08 03:22:35;;;;;;;4.25;0.75;;;16.90;35.10;;;;;;5099136;28;20451;-71
2020/12/08 03:25:05;;;;;;;6.10;0.50;;;16.80;35.30;;;;;;5098033;28;20594;-70
2020/12/08 03:27:32;;;;;;;5.32;0.55;;;16.80;35.30;;;;;;5113512;28;20495;-70
2020/12/08 03:29:59;;;;;;;2.20;0.50;;;16.80;35.30;;;;;;5110624;28;20031;-70
2020/12/08 03:32:29;;;;;;;1.48;0.60;;;16.80;35.30;;;;;;5096451;28;20031;-70
2020/12/08 03:34:57;;;;;;;2.20;1.30;;;16.70;35.30;;;;;;5093497;28;20040;-71
2020/12/08 03:37:24;;;;;;;0.68;0.30;;;16.70;35.40;;;;;;5109955;28;20036;-71
2020/12/08 03:39:52;;;;;;;0.73;0.30;;;16.60;35.40;;;;;;5112780;28;20472;-71
2020/12/08 03:42:20;;;;;;;3.30;0.35;;;16.60;35.50;;;;;;5111651;28;20032;-71
2020/12/08 03:44:47;;;;;;;1.30;0.55;;;16.60;35.40;;;;;;5113961;28;20028;-70
2020/12/08 03:47:14;;;;;;;4.05;0.80;;;16.60;35.50;;;;;;5109980;28;20020;-71
2020/12/08 03:49:41;;;;;;;1.67;0.55;;;16.50;35.50;;;;;;5113376;28;20038;-71
2020/12/08 03:52:08;;;;;;;1.85;0.40;;;16.50;35.60;;;;;;5104914;28;20023;-71
2020/12/08 03:54:35;;;;;;;0.93;0.40;;;16.50;35.70;;;;;;5111435;28;20042;-71
2020/12/08 03:57:02;;;;;;;3.53;0.40;;;16.40;36.00;;;;;;5113077;28;20502;-71
2020/12/08 03:59:29;;;;;;;1.92;0.40;;;16.50;35.40;;;;;;5098397;28;20043;-71
2020/12/08 04:01:55;;;;;;;3.30;0.40;;;16.60;35.40;;;;;;5093985;28;20028;-70
2020/12/08 04:04:25;;;;;;;0.75;0.32;;;16.60;35.10;;;;;;5093840;28;20048;-71
2020/12/08 04:06:55;;;;;;;2.33;0.30;;;16.60;35.20;;;;;;5092973;28;20024;-71
2020/12/08 04:09:22;;;;;;;0.88;0.40;;;16.60;35.20;;;;;;5105416;28;20043;-72
2020/12/08 04:11:49;;;;;;;0.25;0.20;;;16.50;35.50;;;;;;5111831;28;20460;-71
2020/12/08 04:14:16;;;;;;;1.15;0.63;;;16.40;36.00;;;;;;5111371;28;20039;-71
2020/12/08 04:16:44;;;;;;;2.53;0.38;;;16.40;35.50;;;;;;5094178;28;20634;-71
2020/12/08 04:19:11;;;;;;;4.38;0.40;;;16.40;35.50;;;;;;5092599;28;20028;-71
2020/12/08 04:21:38;;;;;;;3.55;0.40;;;16.30;35.50;;;;;;5112877;28;20027;-71
2020/12/08 04:24:05;;;;;;;4.00;0.63;;;16.30;35.50;;;;;;5110266;28;20039;-72
2020/12/08 04:26:33;;;;;;;1.80;0.25;;;16.20;35.60;;;;;;5111267;28;20031;-73
2020/12/08 04:29:01;;;;;;;3.65;0.52;;;16.20;35.80;;;;;;5112946;28;20455;-73
2020/12/08 04:31:28;;;;;;;1.52;0.30;;;16.10;35.60;;;;;;5098966;28;20024;-72
2020/12/08 04:33:56;;;;;;;1.55;0.55;;;16.10;35.40;;;;;;5093143;28;20055;-71
2020/12/08 04:36:24;;;;;;;1.20;0.50;;;16.10;35.80;;;;;;5093943;28;20020;-71
2020/12/08 04:38:51;;;;;;;2.15;0.40;;;16.00;36.00;;;;;;5092599;28;20047;-71
2020/12/08 04:41:25;;;;;;;1.40;0.50;;;15.90;35.90;;;;;;5099667;28;20023;-71
2020/12/08 04:43:53;;;;;;;3.72;0.50;;;15.80;36.10;;;;;;5108254;28;20031;-70
2020/12/08 04:46:26;;;;;;;0.63;0.40;;;15.80;35.80;;;;;;5107992;28;20024;-71
2020/12/08 04:48:53;;;;;;;0.40;0.30;;;15.90;35.70;;;;;;5092347;28;20032;-71
2020/12/08 04:51:21;;;;;;;0.95;0.40;;;15.90;35.60;;;;;;5092806;28;20035;-71
2020/12/08 04:53:52;;;;;;;1.48;0.38;;;16.10;35.60;;;;;;5098475;28;20039;-71
2020/12/08 04:56:20;;;;;;;0.50;0.30;;;15.90;35.90;;;;;;5110067;28;20048;-70
2020/12/08 04:58:47;;;;;;;1.27;0.35;;;15.90;35.70;;;;;;5111556;28;20028;-70
2020/12/08 05:01:27;;;;;;;0.52;0.20;;;16.10;35.60;;;;;;5111812;28;20016;-70
2020/12/08 05:04:01;;;;;;;2.75;0.50;;;16.30;35.20;;;;;;5112410;28;20478;-71
2020/12/08 05:06:30;;;;;;;2.65;0.43;;;16.30;35.20;;;;;;5106667;28;20569;-70
2020/12/08 05:09:05;;;;;;;4.35;0.50;;;16.20;35.30;;;;;;5109580;28;20035;-71
2020/12/08 05:11:32;;;;;;;0.60;0.40;;;16.30;35.10;;;;;;5094735;28;20024;-70
2020/12/08 05:14:04;;;;;;;1.25;0.40;;;16.30;35.20;;;;;;5101338;28;20043;-70
2020/12/08 05:16:33;;;;;;;1.55;0.50;;;16.50;34.80;;;;;;5101242;28;20016;-70
2020/12/08 05:19:11;;;;;;;0.65;0.30;;;16.80;34.20;;;;;;5097555;28;20034;-70
2020/12/08 05:21:48;;;;;;;1.10;0.30;;;16.90;34.30;;;;;;5112574;28;20431;-70
2020/12/08 05:24:32;;;;;;;1.75;0.50;;;16.80;34.30;;;;;;5096253;28;20024;-71
2020/12/08 05:27:01;;;;;;;1.52;0.40;;;16.60;34.60;;;;;;5093102;28;20036;-70
2020/12/08 05:29:32;;;;;;;1.40;0.30;;;16.50;34.70;;;;;;5105418;28;20026;-71
2020/12/08 05:32:24;;;;;;;1.48;0.20;;;16.50;34.70;;;;;;5097433;28;20044;-71
2020/12/08 05:34:55;;;;;;;0.47;0.20;;;16.40;34.80;;;;;;5091726;28;20047;-71
2020/12/08 05:37:22;;;;;;;3.25;0.45;;;16.20;35.30;;;;;;5097582;28;20051;-70
2020/12/08 05:39:50;;;;;;;0.57;0.35;;;16.40;34.90;;;;;;5111933;28;20016;-71
2020/12/08 05:42:21;;;;;;;0.77;0.40;;;16.70;34.20;;;;;;5101485;28;20031;-71
2020/12/08 05:44:49;;;;;;;0.35;0.20;;;16.80;34.10;;;;;;5091326;28;20024;-71
2020/12/08 05:47:21;;;;;;;1.17;0.35;;;16.90;34.00;;;;;;5093527;28;20055;-71
2020/12/08 05:50:04;;;;;;;1.25;0.45;;;16.90;34.10;;;;;;5089584;28;20040;-70
2020/12/08 05:52:33;;;;;;;0.93;0.40;;;16.80;34.00;;;;;;5111130;28;20028;-71
2020/12/08 05:55:15;;;;;;;0.57;0.30;;;16.80;34.30;;;;;;5111537;28;20035;-71
2020/12/08 05:57:43;;;;;;;2.05;0.65;;;16.50;34.50;;;;;;5111282;28;20035;-70
2020/12/08 06:00:30;;;;;;;2.17;0.25;;;16.40;34.60;;;;;;5111732;28;20030;-70
2020/12/08 06:03:14;;;;;;;1.00;0.22;;;16.30;34.90;;;;;;5111810;28;20020;-69
2020/12/08 06:05:46;;;;;;;0.52;0.30;;;16.30;34.70;;;;;;5111936;28;20043;-70
2020/12/08 06:08:17;;;;;;;1.45;0.30;;;16.40;34.40;;;;;;5111318;28;20038;-70
2020/12/08 06:10:47;;;;;;;;;;;16.40;34.40;;;;;;5112135;28;20028;-70
2020/12/08 06:13:48;;;;;;;2.55;0.30;;;16.50;34.40;;;;;;5111209;28;20263;-69
2020/12/08 06:16:20;;;;;;;0.93;0.30;;;16.50;34.20;;;;;;5095612;28;20043;-71
2020/12/08 06:18:49;;;;;;;0.60;0.40;;;16.60;34.10;;;;;;5111689;28;20039;-70
2020/12/08 06:21:22;;;;;;;3.50;0.30;;;16.60;34.30;;;;;;5113820;28;20031;-70
2020/12/08 06:23:53;;;;;;;1.63;0.32;;;16.60;34.20;;;;;;5115106;28;20024;-70
2020/12/08 06:26:24;;;;;;;2.58;0.43;;;16.60;34.10;;;;;;5115158;28;20034;-69
2020/12/08 06:28:55;;;;;;;1.27;0.30;;;16.90;33.60;;;;;;5114900;28;20028;-70
2020/12/08 06:31:23;;;;;;;0.70;0.40;;;17.00;33.50;;;;;;5115167;28;20031;-70
2020/12/08 06:33:56;;;;;;;0.90;0.30;;;17.00;33.30;;;;;;5114974;28;20035;-69
2020/12/08 06:36:27;;;;;;;2.97;0.50;;;17.10;33.50;;;;;;5115021;28;20024;-69
2020/12/08 06:39:04;;;;;;;1.20;0.40;;;17.10;33.40;;;;;;5113161;28;20391;-69
2020/12/08 06:41:37;;;;;;;1.65;0.50;;;17.10;33.40;;;;;;5114927;28;20495;-70
2020/12/08 06:44:05;;;;;;;2.05;0.30;;;17.20;33.20;;;;;;5113741;28;20036;-69
2020/12/08 06:46:33;;;;;;;3.03;0.30;;;17.20;33.20;;;;;;5114871;28;20027;-70
2020/12/08 06:49:20;;;;;;;0.90;0.20;;;17.20;33.20;;;;;;5114721;28;20031;-70
2020/12/08 06:51:57;;;;;;;0.65;0.32;;;17.10;33.10;;;;;;5114840;28;20035;-71
2020/12/08 06:54:25;;;;;;;4.45;0.32;;;17.20;33.30;;;;;;5114282;28;20038;-69
2020/12/08 06:57:00;;;;;;;0.40;0.20;;;17.10;33.20;;;;;;5113856;28;20491;-70
2020/12/08 06:59:28;;;;;;;1.92;0.40;;;17.30;33.00;;;;;;5112558;28;20406;-70
2020/12/08 07:01:59;;;;;;;2.05;0.30;;;17.20;33.10;;;;;;5114130;28;20038;-70
2020/12/08 07:04:29;;;;;;;2.65;0.30;;;17.10;33.30;;;;;;5114651;28;20024;-70
2020/12/08 07:06:59;;;;;;;0.43;0.20;;;17.20;33.20;;;;;;5114067;28;20460;-70
2020/12/08 07:09:34;;;;;;;1.33;0.38;;;17.30;33.00;;;;;;5114276;28;20047;-69
2020/12/08 07:12:04;;;;;;;6.10;0.50;;;17.20;33.10;;;;;;5114354;28;20024;-69
2020/12/08 07:14:36;;;;;;;0.40;0.30;;;17.30;33.10;;;;;;5113666;28;20475;-69
2020/12/08 07:17:03;;;;;;;;;;;17.30;33.00;;;;;;5114436;28;20031;-69
2020/12/08 07:19:30;;;;;;;3.53;0.35;;;17.30;33.10;;;;;;5113642;28;20278;-70
2020/12/08 07:21:59;;;;;;;2.13;0.90;;;17.20;33.00;;;;;;5114045;28;20028;-69
2020/12/08 07:24:26;;;;;;;0.98;0.40;;;17.10;33.20;;;;;;5113617;28;20484;-69
2020/12/08 07:27:01;;;;;;;0.40;0.40;;;17.20;33.10;;;;;;5095278;28;20380;-70
2020/12/08 07:29:28;;;;;;;1.88;0.30;;;17.20;33.40;;;;;;5092680;28;20032;-69
2020/12/08 07:31:55;;;;;;;0.73;0.30;;;17.30;33.40;;;;;;5092636;28;20028;-69
2020/12/08 07:34:22;;;;;;;1.50;0.40;;;17.30;32.90;;;;;;5093335;28;20036;-70
2020/12/08 07:36:49;;;;;;;0.55;0.30;;;17.30;32.90;;;;;;5093396;28;20028;-69
2020/12/08 07:39:19;;;;;;;1.65;0.30;;;17.30;33.00;;;;;;5091553;28;20150;-70
2020/12/08 07:41:50;;;;;;;5.03;0.37;;;17.10;33.10;;;;;;5093354;28;20020;-69
2020/12/08 07:44:17;;;;;;;0.65;0.30;;;17.10;33.20;;;;;;5091765;28;20276;-70
2020/12/08 07:46:51;;;;;;;5.47;0.30;;;17.00;33.50;;;;;;5112442;28;20506;-70
2020/12/08 07:49:19;;;;;;;1.67;0.40;;;17.00;33.40;;;;;;5112915;28;20040;-70
2020/12/08 07:51:50;;;;;;;1.38;0.30;;;17.00;33.30;;;;;;5113140;28;20036;-70
2020/12/08 07:54:18;;;;;;;0.40;0.20;;;16.90;33.40;;;;;;5112423;28;20048;-71
2020/12/08 07:56:45;;;;;;;0.95;0.52;;;16.80;33.70;;;;;;5113386;28;20043;-69
2020/12/08 07:59:12;;;;;;;0.85;0.38;;;16.80;33.60;;;;;;5113270;28;20030;-70
2020/12/08 08:01:44;;;;;;;0.30;0.30;;;16.90;33.60;;;;;;5113058;28;20024;-70
2020/12/08 08:04:12;;;;;;;1.75;0.30;;;16.80;33.50;;;;;;5113063;28;20020;-70
2020/12/08 08:06:39;;;;;;;1.00;0.30;;;16.80;33.70;;;;;;5112471;28;20498;-69
2020/12/08 08:09:07;;;;;;;1.08;0.30;;;16.90;33.50;;;;;;5112386;28;20039;-69
2020/12/08 08:11:38;;;;;;;0.68;0.43;;;16.90;33.60;;;;;;5112458;28;20027;-70
2020/12/08 08:14:05;;;;;;;0.55;0.35;;;16.90;33.50;;;;;;5112995;28;20031;-70
2020/12/08 08:16:34;;;;;;;2.78;0.50;;;16.90;33.30;;;;;;5112926;28;20024;-69
2020/12/08 08:19:02;;;;;;;3.58;0.40;;;17.00;33.30;;;;;;5112298;28;20039;-69
2020/12/08 08:21:29;;;;;;;1.02;0.40;;;17.10;33.30;;;;;;5112818;28;20031;-69
2020/12/08 08:23:59;;;;;;;0.52;0.28;;;17.00;33.40;;;;;;5112649;28;20042;-69
2020/12/08 08:26:27;;;;;;;0.85;0.50;;;17.00;33.50;;;;;;5110826;28;20028;-69
2020/12/08 08:28:54;;;;;;;0.60;0.40;;;16.90;33.60;;;;;;5112488;28;20031;-69
2020/12/08 08:31:21;;;;;;;1.50;0.40;;;16.90;33.50;;;;;;5098326;28;20468;-70
2020/12/08 08:33:48;;;;;;;0.50;0.30;;;16.80;33.40;;;;;;5110530;28;20046;-70
2020/12/08 08:36:15;;;;;;;3.45;0.30;;;16.80;33.50;;;;;;5098841;28;20036;-70
2020/12/08 08:38:42;;;;;;;2.13;0.57;;;16.90;33.50;;;;;;5112598;28;20035;-70
2020/12/08 08:41:09;;;;;;;0.52;0.47;;;16.80;33.60;;;;;;5110594;28;20028;-70
2020/12/08 08:43:36;;;;;;;0.45;0.22;;;16.70;33.70;;;;;;5111704;28;20026;-70
2020/12/08 08:46:03;;;;;;;0.85;0.30;;;16.70;33.70;;;;;;5099265;28;20464;-70
2020/12/08 08:48:31;;;;;;;0.70;0.30;;;16.70;33.70;;;;;;5091716;28;20047;-70
2020/12/08 08:50:58;;;;;;;0.47;0.30;;;16.80;33.70;;;;;;5102144;28;20027;-70
2020/12/08 08:53:28;;;;;;;0.20;0.20;;;16.60;33.80;;;;;;5111860;28;20028;-70
2020/12/08 08:55:55;;;;;;;1.40;0.40;;;16.60;33.80;;;;;;5101021;28;20044;-70
2020/12/08 08:58:22;;;;;;;1.73;0.20;;;16.60;33.70;;;;;;5095832;28;20023;-70
2020/12/08 09:00:49;;;;;;;1.35;0.52;;;16.60;33.90;;;;;;5105300;28;20036;-70
2020/12/08 09:03:16;;;;;;;0.68;0.40;;;16.60;33.70;;;;;;5101154;28;20463;-70
2020/12/08 09:05:43;;;;;;;3.28;0.40;;;16.60;33.70;;;;;;5094731;28;20036;-70
2020/12/08 09:08:10;;;;;;;1.50;0.40;;;16.50;33.80;;;;;;5092201;28;20367;-70
2020/12/08 09:10:37;;;;;;;3.80;0.47;;;16.50;33.90;;;;;;5108233;28;20035;-71
2020/12/08 09:13:04;;;;;;;0.30;0.30;;;16.40;33.80;;;;;;5109817;28;20040;-71
2020/12/08 09:15:31;;;;;;;0.90;0.40;;;16.50;33.90;;;;;;5101517;28;20043;-70
2020/12/08 09:17:58;;;;;;;1.15;0.35;;;16.40;34.00;;;;;;5107078;28;20042;-71
2020/12/08 09:20:27;;;;;;;1.05;0.52;;;16.30;34.10;;;;;;5112165;28;20032;-71
2020/12/08 09:22:54;;;;;;;2.67;0.50;;;16.20;34.20;;;;;;5093927;28;20036;-71
2020/12/08 09:25:23;;;;;;;1.67;0.40;;;16.30;34.20;;;;;;5092551;28;20039;-70
2020/12/08 09:27:51;;;;;;;2.20;0.30;;;16.10;34.40;;;;;;5092103;28;20374;-71
2020/12/08 09:30:18;;;;;;;0.20;0.20;;;16.10;34.40;;;;;;5097946;28;20036;-72
2020/12/08 09:32:44;;;;;;;0.50;0.30;;;16.00;34.60;;;;;;5102847;28;20016;-70
2020/12/08 09:35:12;;;;;;;0.55;0.32;;;15.80;34.90;;;;;;5111933;28;20036;-70
2020/12/08 09:37:38;;;;;;;1.17;0.25;;;15.60;35.10;;;;;;5111588;28;20035;-69
2020/12/08 09:40:05;;;;;;;1.63;0.30;;;15.50;35.40;;;;;;5097934;28;20024;-69
2020/12/08 09:42:32;;;;;;;11.02;1.48;;;15.60;35.40;;;;;;5106188;28;20035;-69
2020/12/08 09:44:59;;;;;;;0.57;0.30;;;15.40;35.40;;;;;;5111696;28;20390;-70
2020/12/08 09:47:26;;;;;;;0.70;0.40;;;15.40;35.40;;;;;;5111678;28;20042;-70
2020/12/08 09:49:53;;;;;;;0.82;0.30;;;15.40;35.40;;;;;;5111972;28;20024;-70
2020/12/08 09:52:20;;;;;;;0.45;0.30;;;15.20;35.80;;;;;;5112116;28;20031;-70
2020/12/08 09:54:47;;;;;;;0.88;0.30;;;15.10;36.30;;;;;;5111958;28;20035;-70
2020/12/08 09:57:14;;;;;;;1.38;0.40;;;14.90;36.30;;;;;;5115533;28;20427;-70
2020/12/08 09:59:41;;;;;;;1.67;0.30;;;14.80;36.50;;;;;;5105065;28;20031;-70
2020/12/08 10:02:08;;;;;;;0.90;0.30;;;14.70;36.50;;;;;;5115903;28;20494;-70
2020/12/08 10:04:35;;;;;;;0.60;0.30;;;15.10;35.90;;;;;;5105945;28;20027;-71
2020/12/08 10:07:01;;;;;;;2.08;0.38;;;15.40;35.30;;;;;;5095835;28;20020;-69
2020/12/08 10:09:28;;;;;;;0.93;0.40;;;15.40;35.30;;;;;;5110740;28;20024;-70
2020/12/08 10:11:55;;;;;;;1.02;0.40;;;15.60;35.00;;;;;;5099076;28;20024;-70
2020/12/08 10:14:22;;;;;;;1.08;0.68;;;15.90;34.60;;;;;;5096126;28;20043;-69
2020/12/08 10:16:51;;;;;;;5.57;0.73;;;15.90;34.50;;;;;;5113158;28;20024;-69
2020/12/08 10:19:18;;;;;;;0.60;0.30;;;15.80;34.80;;;;;;5103215;28;20040;-70
2020/12/08 10:21:45;;;;;;;0.77;0.38;;;16.00;35.00;;;;;;5096037;28;20369;-71
2020/12/08 10:24:12;;;;;;;0.60;0.35;;;16.10;34.20;;;;;;5097352;28;20024;-69
2020/12/08 10:26:39;;;;;;;0.30;0.30;;;16.20;34.20;;;;;;5096787;28;20035;-71
2020/12/08 10:29:06;;;;;;;0.35;0.28;;;16.10;34.30;;;;;;5095850;28;20039;-71
2020/12/08 10:31:33;;;;;;;1.55;0.38;;;16.00;34.40;;;;;;5103843;28;20035;-74
2020/12/08 10:33:59;;;;;;;0.55;0.35;;;15.90;34.50;;;;;;5094453;28;20035;-71
2020/12/08 10:36:26;;;;;;;0.73;0.40;;;15.90;34.50;;;;;;5112663;28;20031;-71
2020/12/08 10:38:53;;;;;;;0.60;0.32;;;15.90;34.50;;;;;;5114700;28;20024;-71
2020/12/08 10:41:21;;;;;;;0.93;0.47;;;15.90;34.30;;;;;;5114143;28;20035;-71
2020/12/08 10:43:48;;;;;;;0.47;0.40;;;16.00;34.20;;;;;;5114415;28;20054;-71
2020/12/08 10:46:15;;;;;;;1.92;0.57;;;16.20;33.80;;;;;;5113276;28;20020;-71
2020/12/08 10:48:42;;;;;;;6.38;0.50;;;16.40;33.70;;;;;;5114342;28;20024;-70
2020/12/08 10:51:09;;;;;;;0.40;0.30;;;16.30;34.10;;;;;;5114612;28;20023;-70
2020/12/08 10:53:36;;;;;;;0.55;0.30;;;16.50;33.60;;;;;;5114407;28;20031;-70
2020/12/08 10:56:03;;;;;;;1.60;0.43;;;16.30;33.70;;;;;;5113720;28;20059;-71
2020/12/08 10:58:30;;;;;;;0.82;0.40;;;16.30;33.80;;;;;;5114510;28;20028;-71
2020/12/08 11:00:57;;;;;;;1.35;0.47;;;16.30;33.90;;;;;;5113778;28;20043;-71
2020/12/08 11:03:24;;;;;;;1.10;0.38;;;16.30;33.90;;;;;;5114415;28;20034;-70
2020/12/08 11:05:51;;;;;;;0.52;0.35;;;16.10;34.00;;;;;;5113533;28;20034;-70
2020/12/08 11:08:21;;;;;;;2.20;0.30;;;16.00;34.10;;;;;;5093877;28;20031;-70
2020/12/08 11:10:48;;;;;;;0.50;0.40;;;16.00;34.10;;;;;;5095204;28;20412;-70
2020/12/08 11:13:15;;;;;;;4.53;0.50;;;16.00;34.10;;;;;;5097025;28;20020;-69
2020/12/08 11:15:42;;;;;;;1.08;0.30;;;16.20;33.70;;;;;;5114370;28;20035;-69
2020/12/08 11:18:09;;;;;;;0.40;0.30;;;16.20;33.70;;;;;;5113007;28;20020;-69
2020/12/08 11:20:36;;;;;;;2.05;0.38;;;16.30;33.60;;;;;;5094960;28;20028;-70
2020/12/08 11:23:03;;;;;;;0.80;0.30;;;16.40;33.40;;;;;;5094939;28;20400;-70
2020/12/08 11:25:30;;;;;;;3.15;0.50;;;16.40;33.40;;;;;;5094853;28;20024;-70
2020/12/08 11:27:57;;;;;;;1.55;0.35;;;16.30;33.60;;;;;;5105005;28;20031;-70
2020/12/08 11:30:24;;;;;;;0.60;0.30;;;16.30;33.50;;;;;;5106792;28;20028;-69
2020/12/08 11:32:50;;;;;;;1.17;0.30;;;16.30;33.40;;;;;;5095637;28;20514;-69
2020/12/08 11:35:17;;;;;;;0.55;0.30;;;16.40;33.20;;;;;;5093391;28;20059;-70
2020/12/08 11:37:44;;;;;;;2.22;0.50;;;16.20;33.90;;;;;;5100358;28;20049;-70
2020/12/08 11:40:11;;;;;;;4.15;0.30;;;16.20;33.40;;;;;;5111952;28;20055;-70
2020/12/08 11:42:38;;;;;;;0.45;0.38;;;16.30;33.30;;;;;;5104068;28;20036;-70
2020/12/08 11:45:05;;;;;;;0.55;0.40;;;16.30;33.30;;;;;;5105788;28;20043;-69
2020/12/08 11:47:32;;;;;;;0.63;0.30;;;16.30;33.20;;;;;;5112088;28;20031;-70
2020/12/08 11:49:59;;;;;;;1.48;0.43;;;16.40;33.10;;;;;;5095182;28;20464;-69
2020/12/08 11:52:26;;;;;;;0.60;0.32;;;16.30;33.20;;;;;;5093932;28;20027;-70
2020/12/08 11:54:53;;;;;;;0.60;0.20;;;16.20;33.30;;;;;;5093156;28;20036;-71
2020/12/08 11:57:20;;;;;;;0.80;0.47;;;16.20;33.00;;;;;;5092949;28;20488;-71
2020/12/08 11:59:47;;;;;;;2.88;0.25;;;16.20;33.10;;;;;;5093736;28;20048;-69
2020/12/08 12:02:14;;;;;;;0.85;0.38;;;16.40;32.90;;;;;;5108232;28;20039;-71
2020/12/08 12:04:41;;;;;;;0.40;0.30;;;16.40;32.80;;;;;;5095034;28;20369;-70
2020/12/08 12:07:08;;;;;;;1.15;0.30;;;16.40;32.80;;;;;;5110917;28;20034;-71
2020/12/08 12:09:34;;;;;;;2.35;0.20;;;16.40;32.70;;;;;;5094256;28;20040;-71
2020/12/08 12:12:01;;;;;;;1.30;0.50;;;16.30;32.80;;;;;;5097028;28;20031;-72
2020/12/08 12:14:28;;;;;;;0.70;0.40;;;16.40;32.50;;;;;;5102094;28;20480;-71
2020/12/08 12:16:55;;;;;;;5.35;0.30;;;16.50;32.40;;;;;;5104841;28;20036;-71
2020/12/08 12:19:22;;;;;;;1.70;0.17;;;16.50;32.50;;;;;;5111293;28;20376;-71
2020/12/08 12:21:50;;;;;;;1.98;0.30;;;16.40;32.40;;;;;;5113530;28;20487;-71
2020/12/08 12:24:17;;;;;;;0.40;0.25;;;16.40;32.50;;;;;;5098371;28;20044;-71
2020/12/08 12:26:44;;;;;;;1.05;0.40;;;16.40;32.40;;;;;;5092632;28;20036;-71
2020/12/08 12:29:11;;;;;;;1.95;0.30;;;16.30;32.60;;;;;;5092230;28;20043;-70
2020/12/08 12:31:44;;;;;;;0.82;0.40;;;16.20;32.80;;;;;;5105917;28;20043;-71
2020/12/08 12:34:12;;;;;;;0.45;0.22;;;16.20;32.80;;;;;;5112706;28;20471;-71
2020/12/08 12:36:39;;;;;;;0.95;0.30;;;16.10;32.90;;;;;;5094911;28;20353;-71
2020/12/08 12:39:07;;;;;;;2.97;0.47;;;15.90;33.20;;;;;;5106104;28;20032;-71
2020/12/08 12:41:34;;;;;;;1.42;0.28;;;16.10;32.90;;;;;;5109338;28;20032;-70
2020/12/08 12:44:01;;;;;;;1.50;0.40;;;16.00;33.10;;;;;;5099485;28;20615;-71
2020/12/08 12:46:28;;;;;;;0.52;0.30;;;15.80;32.80;;;;;;5103039;28;20046;-70
2020/12/08 12:48:55;;;;;;;1.13;0.30;;;15.90;33.00;;;;;;5110985;28;20031;-70
2020/12/08 12:51:23;;;;;;;1.45;0.40;;;15.90;33.00;;;;;;5108039;28;20032;-71
2020/12/08 12:53:51;;;;;;;0.43;0.30;;;15.70;33.90;;;;;;5097704;28;20028;-71